Engelhard, North Carolina
Current Conditions -  °F | °C
As of 3:56 AM on Thursday 27 Nov 2014 (Local Time) from K2DP Reporting Station
Clear Clear  
Wind Chill: 37°   Ceiling: Unl
Heat Index: 37°   Visibility: 10mi
Dew Point: 36°   Wind: 3mph
Humidity: 94%   Direction: 230°SW
Pressure: 30.09"   Gusts: NA
Location:  35.51°N, 76°W
Report Text: K2DP 270856Z AUTO 23003KT 10SM CLR 03/02 A3009 RMK AO2 SLPNO T00290020 53001
Loading
Personal Weather Stations






























Interactive Weather Map New forecast layout! Learn more

10-Day Weather Forecast

Advertisements
Track Severe Weather on mobile